Time;durP1;ratioP1;P1;durP2;ratioP2;P2;SDS_P1;SDS_P2;PMS_P1;PMS_P2;Temp;Humidity;BMP_temperature;BMP_pressure;BME280_temperature;BME280_humidity;BME280_pressure;Samples;Min_cycle;Max_cycle;Signal;HPM_P1;HPM_P2
2022/04/30 00:00:01;;;;;;;13.77;9.30;;;10.00;35.00;;;;;;4972427;28;20481;-73
2022/04/30 00:02:26;;;;;;;19.35;9.27;;;10.00;35.40;;;;;;4975424;28;20510;-74
2022/04/30 00:04:52;;;;;;;17.65;8.60;;;9.90;36.10;;;;;;4964543;28;20410;-74
2022/04/30 00:07:19;;;;;;;16.50;9.43;;;9.80;36.00;;;;;;4976469;28;20435;-73
2022/04/30 00:09:47;;;;;;;13.30;9.05;;;9.80;36.60;;;;;;4973473;28;20403;-73
2022/04/30 00:12:12;;;;;;;18.25;8.80;;;9.80;36.80;;;;;;4974208;28;20417;-74
2022/04/30 00:14:39;;;;;;;15.17;9.90;;;9.70;37.10;;;;;;4966446;28;20420;-74
2022/04/30 00:17:05;;;;;;;17.80;9.68;;;9.60;37.40;;;;;;4969736;28;20423;-74
2022/04/30 00:19:32;;;;;;;16.20;8.63;;;9.80;41.50;;;;;;4966652;28;20898;-73
2022/04/30 00:21:57;;;;;;;15.60;9.50;;;9.80;38.90;;;;;;4972265;28;20439;-76
2022/04/30 00:24:26;;;;;;;18.97;9.40;;;9.80;38.10;;;;;;4975200;28;20431;-76
2022/04/30 00:26:52;;;;;;;14.23;9.43;;;9.80;38.10;;;;;;4970325;28;20421;-76
2022/04/30 00:29:17;;;;;;;15.57;9.50;;;9.70;38.30;;;;;;4973142;28;20432;-76
2022/04/30 00:31:43;;;;;;;18.57;9.23;;;9.60;38.00;;;;;;4965547;28;20471;-75
2022/04/30 00:34:09;;;;;;;17.73;8.90;;;9.60;38.70;;;;;;4970531;28;20939;-76
2022/04/30 00:36:36;;;;;;;20.58;9.02;;;9.50;39.00;;;;;;4970148;28;20415;-76
2022/04/30 00:39:02;;;;;;;15.15;8.30;;;9.50;39.20;;;;;;4975468;28;20464;-77
2022/04/30 00:41:32;;;;;;;14.75;8.70;;;9.40;39.10;;;;;;4974236;28;20498;-76
2022/04/30 00:43:58;;;;;;;16.73;8.52;;;9.40;39.50;;;;;;4975447;28;20519;-75
2022/04/30 00:46:24;;;;;;;14.73;8.50;;;9.40;39.10;;;;;;4975935;28;20422;-76
2022/04/30 00:48:51;;;;;;;17.55;7.93;;;9.30;39.40;;;;;;4973178;28;20400;-76
2022/04/30 00:51:19;;;;;;;16.05;8.27;;;9.30;39.00;;;;;;4972655;28;20803;-76
2022/04/30 00:53:52;;;;;;;14.90;7.78;;;9.20;39.30;;;;;;4970960;28;20909;-74
2022/04/30 00:56:32;;;;;;;16.07;7.77;;;9.20;39.50;;;;;;4975134;28;20436;-76
2022/04/30 00:59:05;;;;;;;21.05;8.30;;;9.20;39.10;;;;;;4970090;28;20437;-75
2022/04/30 01:01:35;;;;;;;13.25;7.93;;;9.20;39.10;;;;;;4978624;28;20430;-76
2022/04/30 01:04:01;;;;;;;17.30;7.63;;;9.10;39.60;;;;;;4974871;28;20448;-75
2022/04/30 01:06:57;;;;;;;14.07;7.55;;;9.10;39.40;;;;;;4973668;28;20840;-74
2022/04/30 01:09:31;;;;;;;18.27;7.03;;;9.10;39.40;;;;;;4977223;28;20420;-74
2022/04/30 01:12:08;;;;;;;15.77;7.45;;;9.00;39.70;;;;;;4981028;28;20407;-74
2022/04/30 01:14:34;;;;;;;14.77;7.43;;;9.00;40.00;;;;;;4974530;28;20420;-75
2022/04/30 01:17:05;;;;;;;12.93;7.43;;;9.00;40.30;;;;;;4970004;28;20444;-75
2022/04/30 01:19:33;;;;;;;13.93;7.60;;;9.00;40.60;;;;;;4984788;28;20482;-75
2022/04/30 01:22:01;;;;;;;11.70;7.47;;;9.00;40.70;;;;;;4968472;28;20473;-75
2022/04/30 01:24:28;;;;;;;13.32;7.53;;;8.90;40.90;;;;;;4972552;28;20470;-75
2022/04/30 01:26:55;;;;;;;13.70;7.97;;;8.90;41.20;;;;;;4973580;28;20470;-75
2022/04/30 01:29:26;;;;;;;14.17;7.27;;;8.80;41.80;;;;;;4972686;28;20425;-75
2022/04/30 01:37:25;;;;;;;10.48;7.65;;;8.80;42.50;;;;;;4970346;28;20469;-75
2022/04/30 01:39:58;;;;;;;13.45;7.38;;;8.80;43.20;;;;;;4973299;28;20427;-75
2022/04/30 01:42:29;;;;;;;16.40;8.20;;;8.80;42.00;;;;;;4973970;28;20486;-75
2022/04/30 01:44:55;;;;;;;10.80;7.07;;;8.90;42.00;;;;;;4972871;28;20459;-75
2022/04/30 01:47:22;;;;;;;14.00;7.50;;;8.80;41.70;;;;;;4972252;28;20453;-75
2022/04/30 01:49:47;;;;;;;12.80;6.28;;;8.80;42.20;;;;;;4975520;28;20856;-75
2022/04/30 01:52:13;;;;;;;12.93;7.78;;;8.70;42.30;;;;;;4981426;28;20420;-75
2022/04/30 01:54:39;;;;;;;12.75;6.90;;;8.80;42.80;;;;;;4980638;28;20538;-74
2022/04/30 01:57:05;;;;;;;13.35;7.80;;;8.70;42.60;;;;;;4974351;28;20765;-75
2022/04/30 01:59:31;;;;;;;10.55;7.60;;;8.70;43.20;;;;;;4968066;28;20408;-75
2022/04/30 02:01:59;;;;;;;14.90;7.00;;;8.70;42.80;;;;;;4973260;28;20743;-75
2022/04/30 02:04:25;;;;;;;13.37;7.57;;;8.60;43.00;;;;;;4972874;28;20427;-75
2022/04/30 02:06:50;;;;;;;12.23;7.40;;;8.70;43.40;;;;;;4966820;28;20443;-75
2022/04/30 02:09:17;;;;;;;11.63;7.03;;;8.60;43.30;;;;;;4968186;28;20438;-76
2022/04/30 02:11:43;;;;;;;13.52;7.70;;;8.60;43.10;;;;;;4971117;28;20422;-75
2022/04/30 02:14:13;;;;;;;14.57;7.88;;;8.60;43.90;;;;;;4971735;28;20814;-75
2022/04/30 02:16:40;;;;;;;13.02;7.25;;;8.50;43.40;;;;;;4968085;28;20916;-75
2022/04/30 02:19:07;;;;;;;11.93;7.40;;;8.50;43.70;;;;;;4967684;28;20537;-75
2022/04/30 02:21:34;;;;;;;14.70;6.90;;;8.50;43.60;;;;;;4966199;28;20415;-75
2022/04/30 02:24:01;;;;;;;11.35;6.80;;;8.40;43.70;;;;;;4966662;28;20504;-75
2022/04/30 02:26:27;;;;;;;15.77;6.78;;;8.40;43.30;;;;;;4968628;28;20412;-75
2022/04/30 02:28:57;;;;;;;13.65;7.70;;;8.40;43.10;;;;;;4972947;28;20726;-76
2022/04/30 02:31:25;;;;;;;11.82;6.03;;;8.40;43.60;;;;;;4972612;28;20771;-75
2022/04/30 02:33:56;;;;;;;16.58;6.20;;;8.40;43.60;;;;;;4972583;28;20751;-75
2022/04/30 02:36:29;;;;;;;9.43;6.30;;;8.30;44.10;;;;;;4967856;28;20834;-75
2022/04/30 02:38:56;;;;;;;12.68;6.93;;;8.30;44.30;;;;;;4969851;28;20897;-75
2022/04/30 02:41:22;;;;;;;13.10;6.28;;;8.50;45.70;;;;;;4970729;28;20498;-73
2022/04/30 02:43:52;;;;;;;12.25;6.55;;;8.40;43.60;;;;;;4971284;28;20407;-74
2022/04/30 02:46:20;;;;;;;14.00;6.97;;;8.30;44.50;;;;;;4977129;28;20443;-73
2022/04/30 02:48:46;;;;;;;19.92;7.25;;;8.20;45.40;;;;;;4975568;28;20903;-75
2022/04/30 02:51:12;;;;;;;9.10;6.60;;;8.20;46.10;;;;;;4969683;28;20409;-75
2022/04/30 02:53:38;;;;;;;11.40;6.78;;;8.20;45.90;;;;;;4975245;28;20491;-75
2022/04/30 02:56:05;;;;;;;13.05;7.00;;;8.20;45.60;;;;;;4976505;28;20458;-74
2022/04/30 03:01:16;;;;;;;13.00;6.93;;;8.10;46.40;;;;;;4976835;28;20407;-74
2022/04/30 03:03:42;;;;;;;12.38;6.90;;;8.10;47.40;;;;;;4975803;28;20498;-73
2022/04/30 03:06:09;;;;;;;14.33;7.10;;;8.10;47.50;;;;;;4974483;28;20487;-74
2022/04/30 03:08:35;;;;;;;13.70;6.80;;;8.00;48.70;;;;;;4969740;28;20404;-74
2022/04/30 03:11:03;;;;;;;11.73;7.25;;;8.00;49.00;;;;;;4975068;28;20400;-74
2022/04/30 03:13:29;;;;;;;12.00;7.75;;;8.00;49.10;;;;;;4976322;28;20412;-74
2022/04/30 03:15:56;;;;;;;13.13;8.23;;;7.90;50.00;;;;;;4962214;28;20917;-73
2022/04/30 03:23:38;;;;;;;12.80;8.10;;;7.80;52.40;;;;;;4974263;28;20932;-73
2022/04/30 03:26:08;;;;;;;16.53;8.30;;;7.70;52.40;;;;;;4961865;28;21004;-73
2022/04/30 03:28:36;;;;;;;18.67;9.02;;;7.70;53.10;;;;;;4974086;28;20419;-73
2022/04/30 03:31:05;;;;;;;12.90;8.23;;;7.60;53.90;;;;;;4968584;28;20413;-74
2022/04/30 03:33:32;;;;;;;13.68;8.10;;;7.60;54.40;;;;;;4973088;28;20424;-74
2022/04/30 03:35:57;;;;;;;17.98;8.43;;;7.50;54.80;;;;;;4971986;28;20419;-74
2022/04/30 03:38:23;;;;;;;16.53;8.33;;;7.50;55.40;;;;;;4969514;28;20420;-73
2022/04/30 03:40:49;;;;;;;14.57;9.00;;;7.50;55.70;;;;;;4971003;28;20408;-74
2022/04/30 03:43:18;;;;;;;19.25;8.98;;;7.40;56.10;;;;;;4970696;28;20506;-74
2022/04/30 03:45:48;;;;;;;14.60;8.68;;;7.40;56.40;;;;;;4973241;28;20448;-73
2022/04/30 03:48:14;;;;;;;17.17;8.77;;;7.40;56.50;;;;;;4976108;28;20410;-74
2022/04/30 03:50:41;;;;;;;18.08;8.77;;;7.40;57.10;;;;;;4974220;28;20412;-74
2022/04/30 03:53:07;;;;;;;19.47;8.50;;;7.40;57.30;;;;;;4976127;28;20862;-73
2022/04/30 03:55:32;;;;;;;14.10;8.57;;;7.30;57.70;;;;;;4986758;28;20424;-76
2022/04/30 03:57:58;;;;;;;16.00;9.00;;;7.30;59.20;;;;;;4972830;28;20878;-74
2022/04/30 04:00:24;;;;;;;17.23;9.00;;;7.30;58.30;;;;;;4975109;28;20406;-75
2022/04/30 04:02:50;;;;;;;15.93;8.55;;;7.30;58.50;;;;;;4965575;28;20473;-74
2022/04/30 04:05:17;;;;;;;17.33;9.13;;;7.20;59.90;;;;;;4974892;28;20439;-76
2022/04/30 04:07:44;;;;;;;15.90;8.68;;;7.10;60.10;;;;;;4976611;28;20432;-75
2022/04/30 04:10:10;;;;;;;15.20;8.80;;;7.00;62.00;;;;;;4971589;28;20505;-74
2022/04/30 04:12:37;;;;;;;13.53;8.37;;;7.00;62.30;;;;;;4978127;28;20479;-74
2022/04/30 04:17:48;;;;;;;17.58;8.30;;;7.20;60.50;;;;;;4979954;28;20418;-75
2022/04/30 04:20:14;;;;;;;17.02;9.32;;;7.20;60.20;;;;;;4979437;28;20922;-73
2022/04/30 04:22:40;;;;;;;18.10;9.27;;;7.10;60.90;;;;;;4969513;28;20498;-74
2022/04/30 04:27:57;;;;;;;22.10;10.50;;;7.00;62.80;;;;;;4987612;23;20507;-73
2022/04/30 04:30:25;;;;;;;15.60;8.80;;;6.90;64.20;;;;;;4992075;28;20456;-73
2022/04/30 04:32:50;;;;;;;15.77;9.27;;;7.00;62.70;;;;;;4992412;28;20757;-73
2022/04/30 04:35:16;;;;;;;13.73;9.13;;;7.00;62.70;;;;;;4991166;28;20505;-73
2022/04/30 04:37:43;;;;;;;19.45;9.55;;;7.00;63.30;;;;;;4992212;28;20441;-73
2022/04/30 04:40:10;;;;;;;20.38;10.35;;;6.90;63.20;;;;;;4987851;28;20411;-73
2022/04/30 04:42:36;;;;;;;16.70;9.60;;;7.00;63.20;;;;;;4991018;28;20426;-73
2022/04/30 04:45:03;;;;;;;17.70;9.77;;;7.00;62.80;;;;;;4991114;28;20398;-73
2022/04/30 04:47:29;;;;;;;15.60;9.10;;;7.00;63.60;;;;;;4990456;28;20398;-73
2022/04/30 04:49:54;;;;;;;23.90;10.80;;;7.00;63.30;;;;;;4993049;28;20418;-73
2022/04/30 04:52:21;;;;;;;19.17;9.50;;;7.00;63.30;;;;;;4992447;28;20399;-73
2022/04/30 04:54:47;;;;;;;19.17;10.10;;;7.10;62.30;;;;;;4991654;28;20509;-73
2022/04/30 04:57:14;;;;;;;20.85;10.23;;;7.00;62.50;;;;;;5004566;28;21043;-72
2022/04/30 04:59:40;;;;;;;19.85;10.68;;;7.00;63.30;;;;;;4988311;28;21070;-72
2022/04/30 05:02:05;;;;;;;18.30;10.63;;;7.00;62.80;;;;;;4984621;28;20506;-72
2022/04/30 05:04:32;;;;;;;18.73;10.10;;;7.00;63.20;;;;;;4990663;28;20402;-72
2022/04/30 05:06:59;;;;;;;22.98;9.90;;;7.00;63.30;;;;;;4991010;28;20497;-71
2022/04/30 05:09:25;;;;;;;19.83;10.77;;;7.00;62.80;;;;;;4989785;28;20415;-73
2022/04/30 05:11:51;;;;;;;19.40;10.05;;;7.00;63.50;;;;;;4991289;28;20890;-73
2022/04/30 05:14:17;;;;;;;18.33;10.93;;;7.00;63.60;;;;;;4989620;28;20411;-73
2022/04/30 05:16:42;;;;;;;18.40;10.57;;;7.00;63.30;;;;;;4990218;28;20907;-72
2022/04/30 05:19:08;;;;;;;18.40;10.50;;;7.00;63.80;;;;;;4990208;28;20959;-72
2022/04/30 05:21:34;;;;;;;21.67;10.30;;;7.10;63.40;;;;;;4989748;28;20404;-72
2022/04/30 05:23:59;;;;;;;22.13;10.43;;;7.00;62.80;;;;;;4990481;28;20398;-73
2022/04/30 05:26:25;;;;;;;22.77;10.50;;;7.10;62.80;;;;;;4989343;28;20413;-71
2022/04/30 05:28:51;;;;;;;28.77;11.40;;;7.10;63.30;;;;;;4989958;28;20414;-72
2022/04/30 05:31:17;;;;;;;20.00;11.25;;;7.20;63.80;;;;;;4983381;28;20434;-72
2022/04/30 05:33:43;;;;;;;15.55;10.10;;;7.20;64.00;;;;;;4989274;28;20913;-72
2022/04/30 05:36:08;;;;;;;30.98;11.68;;;7.40;60.40;;;;;;4990379;28;20752;-73
2022/04/30 05:38:34;;;;;;;18.97;10.03;;;7.40;59.20;;;;;;4989385;28;20410;-72
2022/04/30 05:41:01;;;;;;;22.70;11.33;;;7.40;59.80;;;;;;4987163;28;20981;-72
2022/04/30 05:43:27;;;;;;;17.23;10.20;;;7.30;60.30;;;;;;4988134;28;20415;-72
2022/04/30 05:45:52;;;;;;;21.83;11.10;;;7.40;59.90;;;;;;4989598;28;20431;-73
2022/04/30 05:48:18;;;;;;;19.47;9.83;;;7.40;60.00;;;;;;4988786;28;20857;-72
2022/04/30 05:50:43;;;;;;;25.20;10.37;;;7.40;60.00;;;;;;4987483;28;20412;-72
2022/04/30 05:53:09;;;;;;;23.60;10.80;;;7.40;60.30;;;;;;4990404;28;20424;-73
2022/04/30 05:55:35;;;;;;;18.73;10.43;;;7.40;61.10;;;;;;4985951;28;20402;-73
2022/04/30 05:58:00;;;;;;;18.42;10.43;;;7.40;60.10;;;;;;4985984;28;20442;-72
2022/04/30 06:00:26;;;;;;;21.17;10.85;;;7.40;60.20;;;;;;4989816;28;20414;-72
2022/04/30 06:02:51;;;;;;;20.77;10.03;;;7.30;61.70;;;;;;4988949;28;20421;-73
2022/04/30 06:05:17;;;;;;;18.20;10.20;;;7.40;61.10;;;;;;4988191;28;20409;-72
2022/04/30 06:07:43;;;;;;;17.50;10.20;;;7.40;62.40;;;;;;4987331;28;20445;-71
2022/04/30 06:10:09;;;;;;;16.90;9.10;;;7.50;61.30;;;;;;4992625;28;20478;-72
2022/04/30 06:12:34;;;;;;;17.83;10.23;;;7.60;58.90;;;;;;4988495;28;20813;-73
2022/04/30 06:15:01;;;;;;;17.57;10.13;;;7.50;59.60;;;;;;5004178;28;20465;-71
2022/04/30 06:17:27;;;;;;;18.05;10.25;;;7.50;59.90;;;;;;4987150;28;20826;-71
2022/04/30 06:19:52;;;;;;;15.00;9.53;;;7.60;59.10;;;;;;4989659;28;20497;-72
2022/04/30 06:22:18;;;;;;;18.57;9.60;;;7.70;58.20;;;;;;4988667;28;20402;-73
2022/04/30 06:24:43;;;;;;;18.73;9.60;;;7.80;58.10;;;;;;4987129;28;20398;-72
2022/04/30 06:27:09;;;;;;;18.58;9.35;;;8.10;55.60;;;;;;4988954;28;20997;-73
2022/04/30 06:29:34;;;;;;;17.88;9.50;;;8.40;53.30;;;;;;4986942;28;20403;-73
2022/04/30 06:32:01;;;;;;;16.45;9.00;;;8.70;51.00;;;;;;4987916;28;20406;-74
2022/04/30 06:34:26;;;;;;;16.88;8.18;;;8.80;48.50;;;;;;4986597;28;20816;-71
2022/04/30 06:36:52;;;;;;;16.17;9.10;;;8.70;46.50;;;;;;4990717;28;20402;-74
2022/04/30 06:39:17;;;;;;;16.37;9.30;;;8.70;48.40;;;;;;4991323;28;20391;-72
2022/04/30 06:41:43;;;;;;;19.77;9.90;;;8.70;49.50;;;;;;4990625;28;20417;-73
2022/04/30 06:44:08;;;;;;;11.50;8.30;;;8.80;48.20;;;;;;4990162;28;20412;-72
2022/04/30 06:46:34;;;;;;;15.63;9.03;;;8.90;46.50;;;;;;4992781;28;20425;-73
2022/04/30 06:48:59;;;;;;;18.90;9.63;;;9.00;46.00;;;;;;4987028;28;20413;-72
2022/04/30 06:51:25;;;;;;;18.00;9.80;;;8.90;47.20;;;;;;4988498;28;20538;-72
2022/04/30 06:59:19;;;;;;;15.52;9.88;;;8.90;46.70;;;;;;4988081;28;20483;-74
2022/04/30 07:01:49;;;;;;;17.63;9.15;;;8.70;48.90;;;;;;4988597;28;20898;-75
2022/04/30 07:04:16;;;;;;;19.40;10.02;;;8.70;49.20;;;;;;4993780;28;20444;-74
2022/04/30 07:06:42;;;;;;;18.88;10.57;;;8.80;49.20;;;;;;4985601;28;20410;-76
2022/04/30 07:09:08;;;;;;;16.58;9.27;;;8.90;49.70;;;;;;4989636;28;20910;-73
2022/04/30 07:11:34;;;;;;;19.48;10.10;;;9.00;48.30;;;;;;4981134;28;20474;-72
2022/04/30 07:14:00;;;;;;;16.23;9.23;;;9.10;48.10;;;;;;4985384;28;20894;-72
2022/04/30 07:16:26;;;;;;;18.85;9.70;;;9.40;45.40;;;;;;4987411;28;20437;-72
2022/04/30 07:18:51;;;;;;;21.13;9.77;;;9.50;42.70;;;;;;4987418;28;20413;-75
2022/04/30 07:21:17;;;;;;;19.92;9.30;;;9.50;41.30;;;;;;4989260;28;20410;-73
2022/04/30 07:23:43;;;;;;;16.52;10.00;;;9.50;41.70;;;;;;4993275;28;20508;-73
2022/04/30 07:26:09;;;;;;;22.07;9.70;;;9.40;41.70;;;;;;4997928;28;20436;-72
2022/04/30 07:28:35;;;;;;;18.90;9.48;;;9.50;40.90;;;;;;4991981;28;20406;-72
2022/04/30 07:31:05;;;;;;;18.60;8.13;;;9.50;40.40;;;;;;4991580;28;20402;-73
2022/04/30 07:33:31;;;;;;;18.40;9.73;;;9.50;39.70;;;;;;4990555;28;20918;-72
2022/04/30 07:35:57;;;;;;;15.30;9.00;;;9.70;40.00;;;;;;4997326;28;20538;-72
2022/04/30 07:38:23;;;;;;;17.55;8.80;;;10.00;38.90;;;;;;4990250;28;20425;-74
2022/04/30 07:40:49;;;;;;;14.27;8.15;;;10.50;37.70;;;;;;4998686;28;20412;-74
2022/04/30 07:43:15;;;;;;;13.77;8.02;;;10.70;35.00;;;;;;4997827;28;20424;-72
2022/04/30 07:45:41;;;;;;;16.05;8.20;;;10.60;34.10;;;;;;4994170;28;20497;-74
2022/04/30 07:48:06;;;;;;;15.70;8.70;;;10.20;36.50;;;;;;4993661;28;20434;-75
2022/04/30 07:50:35;;;;;;;13.40;8.30;;;10.20;36.20;;;;;;4992168;28;20963;-77
2022/04/30 07:53:06;;;;;;;12.70;7.47;;;10.30;35.80;;;;;;4991964;28;20407;-76
2022/04/30 07:55:32;;;;;;;13.30;7.72;;;10.50;34.80;;;;;;4991757;28;20895;-75
2022/04/30 07:57:59;;;;;;;15.88;7.53;;;10.50;33.10;;;;;;4993415;28;20514;-73
2022/04/30 08:00:25;;;;;;;9.63;6.73;;;10.60;33.30;;;;;;4995407;28;20484;-73
2022/04/30 08:02:51;;;;;;;12.00;6.78;;;10.70;31.70;;;;;;4996649;28;20400;-72
2022/04/30 08:05:16;;;;;;;15.90;7.53;;;10.70;30.60;;;;;;4995639;28;20413;-72
2022/04/30 08:07:42;;;;;;;15.37;7.50;;;10.60;31.20;;;;;;4988967;28;20422;-73
2022/04/30 08:10:08;;;;;;;13.50;7.18;;;10.60;31.80;;;;;;4989501;28;20409;-72
2022/04/30 08:12:34;;;;;;;11.93;7.90;;;10.50;31.60;;;;;;4988829;28;20457;-73
2022/04/30 08:14:59;;;;;;;14.47;8.03;;;10.50;32.00;;;;;;4990818;28;20414;-74
2022/04/30 08:17:27;;;;;;;13.13;8.23;;;10.50;30.50;;;;;;4988046;28;20413;-74
2022/04/30 08:19:53;;;;;;;15.13;9.00;;;10.50;31.60;;;;;;4989100;28;20407;-71
2022/04/30 08:22:19;;;;;;;12.10;8.13;;;10.30;32.60;;;;;;4991074;28;20418;-75
2022/04/30 08:24:45;;;;;;;15.43;9.98;;;10.30;32.40;;;;;;4989934;28;20443;-73
2022/04/30 08:27:11;;;;;;;15.68;8.90;;;10.20;33.00;;;;;;4989709;28;20494;-72
2022/04/30 08:29:37;;;;;;;17.10;9.05;;;10.20;32.70;;;;;;4993009;28;20536;-73
2022/04/30 08:32:03;;;;;;;13.50;8.30;;;10.40;32.90;;;;;;4987601;28;20417;-75
2022/04/30 08:34:30;;;;;;;14.90;7.93;;;10.50;31.20;;;;;;4992196;28;20464;-77
2022/04/30 08:36:56;;;;;;;13.98;8.50;;;10.70;29.70;;;;;;4990574;28;20430;-74
2022/04/30 08:39:21;;;;;;;9.93;7.77;;;10.90;29.80;;;;;;4987377;28;20521;-74
2022/04/30 08:41:47;;;;;;;15.80;7.63;;;11.10;27.90;;;;;;4992036;28;20910;-75
2022/04/30 08:44:17;;;;;;;9.98;8.02;;;11.20;25.50;;;;;;4991972;28;20394;-73
2022/04/30 08:46:44;;;;;;;9.75;7.43;;;11.30;26.20;;;;;;4989359;28;20409;-73
2022/04/30 08:49:10;;;;;;;9.93;8.05;;;11.30;24.20;;;;;;4989558;28;20412;-73
2022/04/30 08:51:36;;;;;;;13.55;7.13;;;11.20;26.50;;;;;;4989740;28;20467;-74
2022/04/30 08:54:02;;;;;;;11.25;7.07;;;11.10;24.20;;;;;;4990713;28;20498;-74
2022/04/30 08:56:28;;;;;;;11.43;7.40;;;11.10;25.20;;;;;;4989775;28;20429;-74
2022/04/30 08:59:06;;;;;;;13.65;7.13;;;11.10;25.10;;;;;;4986237;28;20694;-73
2022/04/30 09:01:45;;;;;;;11.57;6.90;;;11.10;23.80;;;;;;4988812;28;20398;-74
2022/04/30 09:04:10;;;;;;;9.45;6.78;;;11.20;23.60;;;;;;4985664;28;20423;-73
2022/04/30 09:06:44;;;;;;;11.13;7.20;;;11.50;21.70;;;;;;4987437;28;20420;-73
2022/04/30 09:09:10;;;;;;;9.90;7.20;;;11.70;20.50;;;;;;4986043;28;20406;-73
2022/04/30 09:11:38;;;;;;;10.30;6.20;;;11.70;21.20;;;;;;4989544;28;20406;-72
2022/04/30 09:14:04;;;;;;;10.80;7.33;;;11.80;20.60;;;;;;4982361;28;20943;-73
2022/04/30 09:16:30;;;;;;;14.73;7.90;;;11.80;22.00;;;;;;4986008;28;20429;-72
2022/04/30 09:19:02;;;;;;;11.40;8.40;;;11.90;21.70;;;;;;4988987;28;20804;-72
2022/04/30 09:21:28;;;;;;;12.95;8.55;;;12.00;21.50;;;;;;4989479;28;20462;-73
2022/04/30 09:24:05;;;;;;;9.77;7.80;;;12.10;21.20;;;;;;4996421;28;20468;-73
2022/04/30 09:26:41;;;;;;;14.02;8.50;;;12.20;20.00;;;;;;4990883;28;20487;-72
2022/04/30 09:29:23;;;;;;;16.80;8.55;;;12.20;20.00;;;;;;4995828;28;20410;-72
2022/04/30 09:31:52;;;;;;;9.48;7.38;;;12.30;19.40;;;;;;4996940;28;20494;-73
2022/04/30 09:39:50;;;;;;;10.90;7.93;;;12.30;19.90;;;;;;4993644;28;20425;-74
2022/04/30 09:42:16;;;;;;;12.23;7.95;;;12.40;18.80;;;;;;4994684;28;20766;-73
2022/04/30 09:44:42;;;;;;;11.80;7.95;;;12.70;19.40;;;;;;4994848;28;20413;-75
2022/04/30 09:47:08;;;;;;;10.68;6.80;;;13.00;18.20;;;;;;4993126;28;20934;-76
2022/04/30 09:55:06;;;;;;;10.18;7.35;;;12.90;17.90;;;;;;4991757;28;20547;-74
2022/04/30 09:57:34;;;;;;;7.20;6.30;;;13.30;18.50;;;;;;4990403;28;20484;-74
2022/04/30 10:00:00;;;;;;;8.40;6.50;;;13.20;16.70;;;;;;4986507;28;20783;-73
2022/04/30 10:02:28;;;;;;;11.10;6.80;;;13.30;16.80;;;;;;4989205;28;20903;-73
2022/04/30 10:04:56;;;;;;;10.07;6.30;;;13.30;16.70;;;;;;4987627;28;20760;-74
2022/04/30 10:07:24;;;;;;;11.23;6.18;;;13.30;17.00;;;;;;4987577;28;20398;-70
2022/04/30 10:09:53;;;;;;;12.07;5.50;;;13.10;16.90;;;;;;4982856;28;20472;-70
2022/04/30 10:12:38;;;;;;;7.82;4.80;;;13.20;16.80;;;;;;4988163;28;20420;-73
2022/04/30 10:15:23;;;;;;;7.75;4.70;;;13.30;15.60;;;;;;4988284;28;20414;-71
2022/04/30 10:17:54;;;;;;;7.60;4.70;;;13.30;14.50;;;;;;4987810;28;20392;-71
2022/04/30 10:20:29;;;;;;;9.55;4.95;;;13.40;15.10;;;;;;4987884;28;20394;-74
2022/04/30 10:22:57;;;;;;;9.23;5.20;;;13.50;15.10;;;;;;4986903;28;20406;-71
2022/04/30 10:25:40;;;;;;;7.53;4.73;;;13.90;15.20;;;;;;4985715;28;20406;-72
2022/04/30 10:28:14;;;;;;;8.85;5.00;;;14.00;14.40;;;;;;5001292;23;20456;-75
2022/04/30 10:30:40;;;;;;;6.10;4.82;;;13.90;14.80;;;;;;4993810;28;20442;-74
2022/04/30 10:33:08;;;;;;;5.57;4.87;;;14.30;14.20;;;;;;4991625;28;20434;-73
2022/04/30 10:35:36;;;;;;;10.82;5.30;;;14.60;13.70;;;;;;4988114;28;21256;-74
2022/04/30 10:38:19;;;;;;;6.45;4.40;;;15.00;12.50;;;;;;4990125;28;20810;-73
2022/04/30 10:40:50;;;;;;;10.27;5.25;;;14.80;13.00;;;;;;4987258;28;20406;-74
2022/04/30 10:43:16;;;;;;;13.63;5.25;;;14.40;13.70;;;;;;4993850;28;20484;-74
2022/04/30 10:45:42;;;;;;;8.10;4.63;;;14.00;15.40;;;;;;4988694;28;20792;-74
2022/04/30 10:48:09;;;;;;;11.97;5.03;;;13.70;16.50;;;;;;4989445;28;20406;-74
2022/04/30 10:50:34;;;;;;;10.07;5.78;;;13.60;16.30;;;;;;4988868;28;20472;-74
2022/04/30 10:53:01;;;;;;;8.77;5.10;;;13.70;16.70;;;;;;4993105;28;20887;-74
2022/04/30 10:55:27;;;;;;;9.55;4.70;;;14.10;14.40;;;;;;5002031;28;20420;-74
2022/04/30 10:57:52;;;;;;;8.10;5.32;;;14.40;13.80;;;;;;4992199;28;20753;-74
2022/04/30 11:00:18;;;;;;;6.43;4.90;;;15.10;13.70;;;;;;4997993;28;20453;-76
2022/04/30 11:02:44;;;;;;;10.47;4.80;;;15.50;13.00;;;;;;5016647;28;20417;-74
2022/04/30 11:05:23;;;;;;;7.60;5.13;;;14.80;13.70;;;;;;5014995;28;20938;-77
2022/04/30 11:07:49;;;;;;;6.90;4.70;;;14.50;15.30;;;;;;5000479;28;20974;-75
2022/04/30 11:10:15;;;;;;;10.80;5.00;;;14.80;14.60;;;;;;4997794;28;20410;-75
2022/04/30 11:12:41;;;;;;;7.10;4.53;;;14.80;13.50;;;;;;4995395;28;20400;-75
2022/04/30 11:15:09;;;;;;;10.00;4.90;;;15.00;13.20;;;;;;4993678;28;20500;-77
2022/04/30 11:17:43;;;;;;;5.88;4.60;;;15.50;12.10;;;;;;4993471;28;20802;-76
2022/04/30 11:20:09;;;;;;;8.50;5.07;;;15.80;11.30;;;;;;4995747;28;20414;-75
2022/04/30 11:22:35;;;;;;;10.48;5.32;;;16.00;11.10;;;;;;4994584;28;20419;-74
2022/04/30 11:25:01;;;;;;;8.50;4.90;;;15.30;12.20;;;;;;5008804;28;20440;-77
2022/04/30 11:27:31;;;;;;;8.02;4.68;;;14.70;13.30;;;;;;4992904;28;20429;-74
2022/04/30 11:29:57;;;;;;;8.57;5.10;;;14.70;13.40;;;;;;5017577;28;20414;-76
2022/04/30 11:32:27;;;;;;;8.60;5.00;;;14.70;13.70;;;;;;4997264;28;20415;-75
2022/04/30 11:35:01;;;;;;;4.95;3.95;;;14.80;13.20;;;;;;4993828;28;20911;-75
2022/04/30 11:37:26;;;;;;;11.47;4.70;;;15.10;11.50;;;;;;4992602;28;20395;-76
2022/04/30 11:40:06;;;;;;;6.90;4.43;;;15.50;11.10;;;;;;5002822;28;20437;-75
2022/04/30 11:42:32;;;;;;;5.38;4.10;;;15.90;10.30;;;;;;4999255;28;20465;-75
2022/04/30 11:44:57;;;;;;;11.50;5.10;;;16.00;10.70;;;;;;5002653;28;20432;-74
2022/04/30 11:47:24;;;;;;;11.40;4.40;;;15.90;11.10;;;;;;5000880;28;20478;-76
2022/04/30 11:49:49;;;;;;;6.75;4.72;;;15.50;11.80;;;;;;5019399;28;20783;-76
2022/04/30 11:52:16;;;;;;;7.75;5.20;;;15.30;12.20;;;;;;4998956;28;20406;-76
2022/04/30 11:54:42;;;;;;;6.75;4.70;;;14.90;12.50;;;;;;5000612;28;20924;-76
2022/04/30 11:57:08;;;;;;;8.10;4.80;;;14.70;13.00;;;;;;5003426;28;20786;-77
2022/04/30 11:59:39;;;;;;;8.80;5.30;;;14.80;12.70;;;;;;4994410;28;20401;-75
2022/04/30 12:02:08;;;;;;;9.80;4.82;;;15.00;13.00;;;;;;4997665;28;20395;-79
2022/04/30 12:04:35;;;;;;;8.63;5.10;;;14.90;13.10;;;;;;4993975;28;20398;-75
2022/04/30 12:07:05;;;;;;;7.50;4.35;;;15.00;12.20;;;;;;4999225;28;20399;-74
2022/04/30 12:09:32;;;;;;;8.75;4.70;;;14.60;12.40;;;;;;4991883;28;20402;-76
2022/04/30 12:11:59;;;;;;;8.50;5.00;;;14.60;13.10;;;;;;4994413;28;20778;-76
2022/04/30 12:14:25;;;;;;;8.82;5.40;;;14.90;13.00;;;;;;4994887;28;20895;-74
2022/04/30 12:16:53;;;;;;;8.60;4.70;;;15.40;11.70;;;;;;4994617;28;20421;-75
2022/04/30 12:25:04;;;;;;;8.50;4.68;;;15.60;11.50;;;;;;4997777;28;20761;-73
2022/04/30 12:27:30;;;;;;;5.90;4.70;;;16.10;9.70;;;;;;4996752;28;20411;-74
2022/04/30 12:30:14;;;;;;;6.82;4.53;;;16.60;8.40;;;;;;4989495;28;20517;-75
2022/04/30 12:32:48;;;;;;;7.70;4.15;;;17.30;8.20;;;;;;4992885;28;20763;-75
2022/04/30 12:35:16;;;;;;;6.93;4.80;;;17.10;7.90;;;;;;4987667;28;20414;-75
2022/04/30 12:37:41;;;;;;;7.95;4.75;;;16.70;8.60;;;;;;4993245;28;20429;-74
2022/04/30 12:40:09;;;;;;;6.05;4.47;;;16.00;9.50;;;;;;4993013;28;20895;-75
2022/04/30 12:42:34;;;;;;;9.47;4.77;;;15.70;10.20;;;;;;4989092;28;20418;-76
2022/04/30 12:45:00;;;;;;;8.90;4.80;;;15.80;9.90;;;;;;4987766;28;20783;-75
2022/04/30 12:47:26;;;;;;;6.90;4.60;;;15.70;10.40;;;;;;4987773;28;20425;-75
2022/04/30 12:49:51;;;;;;;8.47;4.50;;;15.80;10.00;;;;;;5010253;28;20494;-76
2022/04/30 12:52:17;;;;;;;8.93;4.68;;;16.40;8.70;;;;;;4988057;28;20486;-75
2022/04/30 12:54:42;;;;;;;6.45;4.85;;;16.60;8.70;;;;;;4990092;28;20764;-74
2022/04/30 12:57:08;;;;;;;7.10;4.38;;;16.50;8.20;;;;;;4990868;28;20497;-74
2022/04/30 12:59:37;;;;;;;5.88;4.10;;;16.10;8.40;;;;;;4987033;28;20800;-75
2022/04/30 13:02:03;;;;;;;9.88;4.60;;;15.80;8.90;;;;;;4987653;28;20410;-75
2022/04/30 13:04:29;;;;;;;5.85;4.20;;;15.90;8.90;;;;;;4991032;28;20493;-76
2022/04/30 13:06:55;;;;;;;11.80;4.60;;;16.00;9.50;;;;;;4990776;28;20446;-78
2022/04/30 13:14:51;;;;;;;8.27;4.00;;;16.20;8.50;;;;;;4990702;28;20417;-74
2022/04/30 13:17:17;;;;;;;6.20;4.00;;;16.40;8.70;;;;;;4991826;28;20406;-74
2022/04/30 13:19:44;;;;;;;6.25;3.80;;;16.50;7.70;;;;;;4986819;28;20479;-73
2022/04/30 13:22:10;;;;;;;6.15;3.83;;;16.30;7.50;;;;;;4990810;28;20416;-74
2022/04/30 13:24:35;;;;;;;4.70;3.80;;;17.00;7.70;;;;;;4990608;28;20398;-73
2022/04/30 13:27:01;;;;;;;6.28;3.38;;;17.80;6.30;;;;;;4988713;28;20417;-76
2022/04/30 13:29:27;;;;;;;4.47;3.53;;;17.90;6.00;;;;;;4988736;28;20418;-75
2022/04/30 13:31:53;;;;;;;8.05;4.38;;;17.00;6.90;;;;;;4994841;28;20409;-72